Time;durP1;ratioP1;P1;durP2;ratioP2;P2;SDS_P1;SDS_P2;PMS_P1;PMS_P2;Temp;Humidity;BMP_temperature;BMP_pressure;BME280_temperature;BME280_humidity;BME280_pressure;Samples;Min_cycle;Max_cycle;Signal;HPM_P1;HPM_P2
2021/01/10 00:00:31;;;;;;;43.92;29.18;;;;;;;1.36;74.68;100579.98;1703363;84;21057;-54
2021/01/10 00:03:00;;;;;;;43.83;29.35;;;;;;;1.38;74.44;100581.95;1703415;84;21089;-54
2021/01/10 00:05:37;;;;;;;57.08;36.77;;;;;;;1.36;74.60;100581.88;1704787;84;21215;-53
2021/01/10 00:08:06;;;;;;;46.05;29.75;;;;;;;1.36;74.47;100585.93;1704819;84;21033;-54
2021/01/10 00:10:34;;;;;;;46.05;29.63;;;;;;;1.30;74.50;100586.25;1704821;84;21077;-54
2021/01/10 00:13:04;;;;;;;42.67;26.68;;;;;;;1.28;74.60;100593.72;1704737;84;21070;-54
2021/01/10 00:15:32;;;;;;;46.70;28.05;;;;;;;1.26;74.64;100584.99;1701061;84;21042;-53
2021/01/10 00:18:00;;;;;;;45.70;29.05;;;;;;;1.28;74.69;100591.02;1706367;84;21225;-53
2021/01/10 00:20:28;;;;;;;44.73;27.87;;;;;;;1.30;74.56;100595.72;1704772;84;21053;-54
2021/01/10 00:22:56;;;;;;;41.08;26.48;;;;;;;1.30;74.50;100597.07;1706213;84;21025;-54
2021/01/10 00:25:24;;;;;;;43.83;27.73;;;;;;;1.31;74.32;100605.48;1702331;84;21069;-52
2021/01/10 00:27:52;;;;;;;46.65;31.37;;;;;;;1.31;74.29;100604.13;1690021;84;21069;-53
2021/01/10 00:30:21;;;;;;;42.58;31.30;;;;;;;1.33;74.30;100605.27;1745869;82;21014;-53
2021/01/10 00:32:51;;;;;;;42.38;28.65;;;;;;;1.36;74.18;100607.05;1713222;83;21653;-52
2021/01/10 00:35:19;;;;;;;39.90;28.52;;;;;;;1.37;74.05;100610.58;1703489;84;21641;-52
2021/01/10 00:37:48;;;;;;;44.75;29.48;;;;;;;1.33;74.07;100599.36;1683748;85;21034;-52
2021/01/10 00:40:17;;;;;;;43.02;28.65;;;;;;;1.36;73.94;100604.34;1702601;84;21021;-53
2021/01/10 00:42:46;;;;;;;41.92;25.10;;;;;;;1.37;73.99;100601.11;1683603;85;21225;-52
2021/01/10 00:45:14;;;;;;;46.42;29.42;;;;;;;1.41;73.98;100593.42;1737991;81;22156;-52
2021/01/10 00:47:42;;;;;;;35.15;22.07;;;;;;;1.38;73.80;100599.55;1725308;82;20982;-52
2021/01/10 00:50:12;;;;;;;41.73;26.75;;;;;;;1.40;73.93;100597.16;1739742;81;21010;-53
2021/01/10 00:52:39;;;;;;;43.70;27.90;;;;;;;1.39;73.99;100599.05;1744314;81;21588;-53
2021/01/10 00:55:09;;;;;;;44.38;29.15;;;;;;;1.41;73.82;100597.48;1720768;82;21218;-53
2021/01/10 00:57:37;;;;;;;45.65;31.05;;;;;;;1.36;73.95;100590.81;1732542;82;21009;-53
2021/01/10 01:00:10;;;;;;;45.35;31.25;;;;;;;1.33;73.91;100596.65;1695128;84;22168;-53
2021/01/10 01:02:40;;;;;;;41.42;26.25;;;;;;;1.34;74.05;100599.67;1741163;81;21014;-52
2021/01/10 01:05:10;;;;;;;42.17;26.27;;;;;;;1.35;73.98;100599.14;1742644;81;21074;-53
2021/01/10 01:07:39;;;;;;;44.88;29.72;;;;;;;1.34;73.97;100608.30;1738496;81;22135;-53
2021/01/10 01:10:10;;;;;;;39.03;26.52;;;;;;;1.33;74.11;100600.70;1740135;81;21065;-53
2021/01/10 01:12:37;;;;;;;42.83;27.62;;;;;;;1.30;74.14;100597.07;1744676;81;21129;-52
2021/01/10 01:15:07;;;;;;;39.80;27.70;;;;;;;1.32;74.20;100601.73;1737784;81;21041;-53
2021/01/10 01:17:36;;;;;;;42.03;26.82;;;;;;;1.33;74.25;100607.48;1741526;81;21025;-52
2021/01/10 01:20:07;;;;;;;42.33;28.77;;;;;;;1.38;74.15;100596.84;1743542;81;21276;-53
2021/01/10 01:22:35;;;;;;;48.85;29.48;;;;;;;1.37;74.00;100599.25;1744481;82;21565;-53
2021/01/10 01:25:05;;;;;;;47.53;31.10;;;;;;;1.36;73.99;100596.23;1713768;82;21041;-53
2021/01/10 01:27:33;;;;;;;49.20;31.75;;;;;;;1.35;74.00;100591.02;1743567;81;21050;-53
2021/01/10 01:30:05;;;;;;;45.43;29.18;;;;;;;1.34;74.02;100590.20;1744379;81;21625;-54
2021/01/10 01:32:36;;;;;;;44.15;30.68;;;;;;;1.35;74.09;100601.32;1717021;82;21224;-53
2021/01/10 01:35:06;;;;;;;47.70;31.40;;;;;;;1.38;74.19;100600.89;1703259;84;21122;-54
2021/01/10 01:37:34;;;;;;;43.92;27.98;;;;;;;1.41;74.03;100590.71;1703644;84;21611;-53
2021/01/10 01:40:08;;;;;;;44.05;30.70;;;;;;;1.41;73.93;100598.83;1702788;84;21034;-53
2021/01/10 01:42:35;;;;;;;42.73;28.92;;;;;;;1.40;73.78;100600.72;1702941;84;20958;-54
2021/01/10 01:45:06;;;;;;;45.78;29.42;;;;;;;1.37;73.81;100599.25;1683684;84;21223;-54
2021/01/10 01:47:34;;;;;;;42.83;29.75;;;;;;;1.35;73.83;100589.14;1683133;84;21062;-52
2021/01/10 01:50:05;;;;;;;48.05;34.75;;;;;;;1.36;74.02;100600.28;1737907;81;20994;-54
2021/01/10 01:52:33;;;;;;;46.23;31.73;;;;;;;1.40;73.94;100599.86;1738975;81;21042;-53
2021/01/10 01:55:06;;;;;;;45.08;30.62;;;;;;;1.44;73.80;100595.70;1691032;84;21568;-53
2021/01/10 01:57:34;;;;;;;45.85;29.20;;;;;;;1.42;73.68;100593.73;1682931;84;21626;-53
2021/01/10 02:00:05;;;;;;;47.23;29.92;;;;;;;1.35;73.83;100599.97;1689700;84;21102;-53
2021/01/10 02:02:41;;;;;;;45.63;29.12;;;;;;;1.38;73.93;100600.08;1699490;84;21113;-53
2021/01/10 02:05:12;;;;;;;43.80;29.18;;;;;;;1.40;73.83;100603.92;1686552;84;21063;-53
2021/01/10 02:07:51;;;;;;;44.98;29.32;;;;;;;1.40;73.80;100603.92;1689204;84;21227;-53
2021/01/10 02:10:18;;;;;;;44.75;28.35;;;;;;;1.36;73.81;100609.77;1706279;84;21390;-53
2021/01/10 02:12:50;;;;;;;48.63;29.85;;;;;;;1.31;73.98;100610.89;1701054;84;21037;-53
2021/01/10 02:15:23;;;;;;;62.55;47.90;;;;;;;1.28;74.21;100614.02;1686190;84;21102;-53
2021/01/10 02:17:53;;;;;;;50.17;31.68;;;;;;;1.27;74.26;100620.99;1706457;84;22074;-52
2021/01/10 02:20:34;;;;;;;48.58;30.85;;;;;;;1.23;74.21;100621.95;1701995;83;21213;-54
2021/01/10 02:23:21;;;;;;;46.88;30.30;;;;;;;1.21;74.34;100617.23;1702735;84;21362;-54
2021/01/10 02:25:49;;;;;;;51.08;30.97;;;;;;;1.24;74.50;100620.06;1687741;84;21600;-54
2021/01/10 02:28:21;;;;;;;46.55;30.85;;;;;;;1.27;74.41;100619.14;1739124;81;21005;-54
2021/01/10 02:30:50;;;;;;;49.67;30.57;;;;;;;1.28;74.52;100615.91;1742420;81;21648;-54
2021/01/10 02:33:50;;;;;;;50.10;30.65;;;;;;;1.28;74.48;100615.91;1731745;82;21768;-54
2021/01/10 02:36:40;;;;;;;46.48;30.68;;;;;;;1.28;74.58;100613.20;1683731;84;21212;-54
2021/01/10 02:39:21;;;;;;;54.65;32.08;;;;;;;1.28;74.65;100615.37;1740258;81;21089;-52
2021/01/10 02:41:57;;;;;;;53.55;30.68;;;;;;;1.29;74.80;100618.93;1745042;82;21035;-53
2021/01/10 02:44:43;;;;;;;54.60;35.07;;;;;;;1.28;74.70;100614.02;1739327;81;21062;-52
2021/01/10 02:47:11;;;;;;;48.45;29.57;;;;;;;1.24;74.82;100611.41;1714165;83;21075;-53
2021/01/10 02:49:39;;;;;;;52.13;32.98;;;;;;;1.27;74.85;100612.38;1691620;84;21284;-52
2021/01/10 02:52:06;;;;;;;51.98;32.48;;;;;;;1.26;74.86;100614.76;1743595;81;20998;-52
2021/01/10 02:54:34;;;;;;;48.30;29.95;;;;;;;1.26;74.87;100611.20;1742568;81;21054;-53
2021/01/10 02:57:15;;;;;;;52.40;32.75;;;;;;;1.28;74.87;100619.96;1743564;81;21041;-53
2021/01/10 02:59:44;;;;;;;47.73;30.25;;;;;;;1.27;74.90;100611.52;1717400;82;21014;-52
2021/01/10 03:02:13;;;;;;;51.25;31.70;;;;;;;1.27;75.02;100609.67;1700338;84;22384;-53
2021/01/10 03:04:41;;;;;;;49.58;29.70;;;;;;;1.29;74.87;100610.28;1684129;85;21035;-53
2021/01/10 03:07:09;;;;;;;52.05;30.05;;;;;;;1.34;74.90;100615.92;1700587;84;21061;-53
2021/01/10 03:09:37;;;;;;;51.77;35.48;;;;;;;1.35;74.86;100612.67;1686298;84;21062;-53
2021/01/10 03:12:25;;;;;;;53.33;32.80;;;;;;;1.33;74.88;100618.30;1696623;84;21116;-53
2021/01/10 03:14:55;;;;;;;52.30;32.10;;;;;;;1.34;74.95;100614.56;1742355;81;22313;-53
2021/01/10 03:17:33;;;;;;;49.63;32.95;;;;;;;1.38;74.99;100617.14;1745521;81;21640;-53
2021/01/10 03:20:06;;;;;;;54.45;33.60;;;;;;;1.38;74.94;100606.31;1741133;81;21066;-53
2021/01/10 03:22:34;;;;;;;54.63;32.53;;;;;;;1.42;74.97;100612.69;1738216;81;21053;-53
2021/01/10 03:25:04;;;;;;;52.67;33.30;;;;;;;1.44;74.97;100614.66;1743661;81;21034;-53
2021/01/10 03:27:33;;;;;;;51.77;31.93;;;;;;;1.45;74.89;100614.97;1738900;81;21390;-53
2021/01/10 03:30:09;;;;;;;43.33;28.73;;;;;;;1.42;74.94;100613.52;1715984;82;21095;-53
2021/01/10 03:32:37;;;;;;;50.33;29.75;;;;;;;1.46;74.97;100622.88;1703638;84;21105;-53
2021/01/10 03:35:06;;;;;;;49.50;30.37;;;;;;;1.47;74.79;100616.94;1705576;84;21088;-53
2021/01/10 03:37:35;;;;;;;44.95;29.65;;;;;;;1.47;74.87;100614.23;1702150;84;21041;-53
2021/01/10 03:40:05;;;;;;;53.50;33.35;;;;;;;1.48;74.88;100619.44;1684012;85;21369;-53
2021/01/10 03:42:32;;;;;;;54.20;33.67;;;;;;;1.48;74.82;100617.26;1684004;84;21064;-53
2021/01/10 03:45:00;;;;;;;47.27;29.55;;;;;;;1.44;74.90;100619.53;1738541;81;21076;-53
2021/01/10 03:47:27;;;;;;;57.78;34.98;;;;;;;1.44;74.97;100607.89;1737855;81;20979;-54
2021/01/10 03:49:55;;;;;;;46.88;30.75;;;;;;;1.46;74.88;100611.20;1719843;82;21034;-53
2021/01/10 03:52:22;;;;;;;53.98;35.13;;;;;;;1.44;75.00;100610.59;1683887;84;21931;-54
2021/01/10 03:54:50;;;;;;;49.58;33.13;;;;;;;1.43;75.07;100612.98;1703302;84;21006;-54
2021/01/10 03:57:20;;;;;;;58.42;36.50;;;;;;;1.46;75.07;100605.28;1705604;83;21061;-54
2021/01/10 03:59:47;;;;;;;57.45;33.08;;;;;;;1.47;74.96;100618.30;1701944;84;21651;-53
2021/01/10 04:02:16;;;;;;;48.25;30.45;;;;;;;1.48;75.13;100619.97;1706374;84;21026;-53
2021/01/10 04:04:43;;;;;;;65.72;45.20;;;;;;;1.55;74.96;100622.15;1703248;84;21216;-53
2021/01/10 04:07:11;;;;;;;50.15;33.83;;;;;;;1.57;74.70;100620.05;1685949;84;21133;-54
2021/01/10 04:09:39;;;;;;;50.00;32.93;;;;;;;1.58;74.60;100620.37;1736863;81;21026;-53
2021/01/10 04:12:08;;;;;;;48.13;32.53;;;;;;;1.55;74.61;100624.33;1740400;81;21034;-53
2021/01/10 04:14:36;;;;;;;42.70;28.10;;;;;;;1.58;74.58;100620.37;1736029;81;21013;-53
2021/01/10 04:17:03;;;;;;;51.73;32.10;;;;;;;1.58;74.40;100623.61;1716084;82;21913;-53
2021/01/10 04:19:31;;;;;;;45.15;29.25;;;;;;;1.54;74.46;100624.53;1700768;84;21171;-54
2021/01/10 04:21:59;;;;;;;48.92;31.23;;;;;;;1.56;74.53;100633.30;1689684;84;21073;-53
2021/01/10 04:24:26;;;;;;;51.90;31.07;;;;;;;1.58;74.32;100631.73;1703422;84;21081;-53
2021/01/10 04:26:54;;;;;;;53.58;33.18;;;;;;;1.49;74.43;100623.81;1685041;84;21016;-53
2021/01/10 04:29:21;;;;;;;47.75;30.65;;;;;;;1.48;74.64;100631.61;1742750;81;21215;-53
2021/01/10 04:31:50;;;;;;;54.03;33.30;;;;;;;1.47;74.74;100633.18;1741813;81;20967;-53
2021/01/10 04:34:18;;;;;;;55.05;33.83;;;;;;;1.50;74.70;100639.52;1739044;81;21098;-53
2021/01/10 04:36:46;;;;;;;51.58;34.48;;;;;;;1.52;74.74;100634.75;1734318;81;21484;-53
2021/01/10 04:39:16;;;;;;;43.73;28.98;;;;;;;1.52;74.62;100641.52;1742781;81;21042;-53
2021/01/10 04:41:44;;;;;;;50.08;31.82;;;;;;;1.52;74.69;100649.64;1742432;81;21287;-53
2021/01/10 04:44:13;;;;;;;44.60;28.50;;;;;;;1.55;74.79;100653.28;1742084;81;21055;-53
2021/01/10 04:46:41;;;;;;;52.33;33.10;;;;;;;1.57;74.75;100656.60;1719046;82;21019;-54
2021/01/10 04:49:08;;;;;;;50.40;30.85;;;;;;;1.55;74.73;100662.76;1683286;84;21086;-53
2021/01/10 04:51:38;;;;;;;52.33;32.05;;;;;;;1.53;74.88;100666.20;1707565;81;21029;-53
2021/01/10 04:54:07;;;;;;;50.15;31.17;;;;;;;1.55;74.88;100659.52;1683420;85;21283;-53
2021/01/10 04:56:36;;;;;;;49.88;33.83;;;;;;;1.59;74.81;100666.72;1703559;83;21105;-53
2021/01/10 04:59:05;;;;;;;47.08;30.17;;;;;;;1.58;74.62;100665.05;1682727;84;21019;-53
2021/01/10 05:01:37;;;;;;;47.50;28.62;;;;;;;1.55;74.78;100666.29;1706232;84;21069;-53
2021/01/10 05:04:06;;;;;;;50.50;30.50;;;;;;;1.54;74.89;100671.91;1703644;84;21615;-53
2021/01/10 05:06:37;;;;;;;44.93;27.20;;;;;;;1.48;74.94;100673.58;1683902;84;22281;-53
2021/01/10 05:09:06;;;;;;;43.75;27.80;;;;;;;1.48;75.09;100674.93;1683632;85;21070;-53
2021/01/10 05:11:35;;;;;;;51.05;32.48;;;;;;;1.50;75.13;100674.72;1684701;84;21075;-53
2021/01/10 05:14:04;;;;;;;43.15;26.33;;;;;;;1.49;75.09;100674.43;1693821;84;21001;-53
2021/01/10 05:16:33;;;;;;;48.80;30.00;;;;;;;1.48;75.20;100679.52;1740384;81;21653;-52
2021/01/10 05:19:03;;;;;;;49.95;32.55;;;;;;;1.46;75.24;100685.64;1744124;81;21146;-52
2021/01/10 05:21:34;;;;;;;48.35;29.85;;;;;;;1.48;75.31;100684.94;1721760;82;21030;-52
2021/01/10 05:24:03;;;;;;;56.83;41.55;;;;;;;1.50;75.31;100686.91;1740893;81;21006;-53
2021/01/10 05:26:32;;;;;;;52.08;32.78;;;;;;;1.50;75.20;100689.61;1744373;81;21003;-53
2021/01/10 05:29:08;;;;;;;56.88;31.42;;;;;;;1.46;75.23;100693.77;1719584;82;21046;-53
2021/01/10 05:31:41;;;;;;;43.63;28.40;;;;;;;1.48;75.52;100694.41;1702770;84;21285;-53
2021/01/10 05:34:14;;;;;;;52.93;32.78;;;;;;;1.53;75.41;100690.05;1703285;84;21046;-53
2021/01/10 05:36:43;;;;;;;46.37;29.55;;;;;;;1.52;75.18;100685.66;1705162;84;21608;-52
2021/01/10 05:39:27;;;;;;;47.65;30.70;;;;;;;1.51;75.36;100702.11;1702393;84;21391;-53
2021/01/10 05:42:00;;;;;;;49.77;29.50;;;;;;;1.54;75.31;100694.43;1684046;85;21617;-53
2021/01/10 05:44:30;;;;;;;49.03;28.52;;;;;;;1.55;75.11;100693.90;1686575;84;22285;-52
2021/01/10 05:47:04;;;;;;;59.30;41.00;;;;;;;1.54;75.05;100698.98;1738486;81;21042;-53
2021/01/10 05:49:31;;;;;;;59.70;40.15;;;;;;;1.48;75.14;100707.95;1744502;82;21005;-53
2021/01/10 05:52:10;;;;;;;63.33;39.35;;;;;;;1.44;75.33;100702.09;1744497;82;21035;-53
2021/01/10 05:54:48;;;;;;;49.83;32.30;;;;;;;1.44;75.49;100703.98;1714060;83;21098;-53
2021/01/10 05:57:17;;;;;;;;;;;;;;;1.44;75.53;100714.81;1707406;84;22203;-53
2021/01/10 05:59:51;;;;;;;57.23;36.28;;;;;;;1.44;75.57;100712.10;1701981;84;20193;-53
2021/01/10 06:02:34;;;;;;;47.27;31.87;;;;;;;1.43;75.43;100713.12;1706538;83;21065;-54
2021/01/10 06:05:20;;;;;;;49.65;29.48;;;;;;;1.40;75.61;100712.20;1704063;84;21686;-53
2021/01/10 06:07:47;;;;;;;52.80;33.78;;;;;;;1.37;75.72;100710.23;1705745;84;21084;-54
2021/01/10 06:10:27;;;;;;;46.15;28.62;;;;;;;1.38;75.64;100724.05;1702573;83;21225;-52
2021/01/10 06:13:03;;;;;;;46.60;28.45;;;;;;;1.36;75.79;100713.97;1706477;84;21053;-53
2021/01/10 06:15:32;;;;;;;48.63;33.45;;;;;;;1.39;75.86;100716.79;1702998;84;21013;-53
2021/01/10 06:18:01;;;;;;;54.08;34.00;;;;;;;1.42;75.82;100727.73;1700755;84;21045;-53
2021/01/10 06:20:31;;;;;;;45.67;31.48;;;;;;;1.47;75.73;100729.28;1687163;84;21014;-54
2021/01/10 06:23:02;;;;;;;52.98;31.40;;;;;;;1.49;75.72;100732.10;1685154;84;21084;-53
2021/01/10 06:25:31;;;;;;;48.85;30.30;;;;;;;1.50;75.68;100736.98;1703446;84;21391;-53
2021/01/10 06:28:03;;;;;;;51.20;32.90;;;;;;;1.50;75.76;100744.61;1704713;84;21093;-53
2021/01/10 06:30:34;;;;;;;44.33;29.27;;;;;;;1.53;75.61;100740.66;1704711;84;21088;-54
2021/01/10 06:33:12;;;;;;;48.00;29.95;;;;;;;1.57;75.51;100735.66;1683747;84;21011;-54
2021/01/10 06:35:44;;;;;;;48.52;29.52;;;;;;;1.60;75.58;100746.92;1705271;84;21226;-53
2021/01/10 06:38:11;;;;;;;57.30;37.05;;;;;;;1.66;75.47;100751.50;1697642;84;21053;-53
2021/01/10 06:40:40;;;;;;;53.30;33.38;;;;;;;1.66;75.21;100748.80;1701584;84;21069;-53
2021/01/10 06:43:08;;;;;;;47.58;30.27;;;;;;;1.67;75.16;100751.83;1704611;84;21591;-53
2021/01/10 06:45:39;;;;;;;48.92;31.68;;;;;;;1.67;75.06;100753.68;1702099;84;21030;-54
2021/01/10 06:48:08;;;;;;;56.28;35.30;;;;;;;1.63;75.10;100764.11;1683343;85;22213;-53
2021/01/10 06:50:36;;;;;;;45.43;28.20;;;;;;;1.65;75.15;100767.95;1685068;84;21044;-53
2021/01/10 06:53:09;;;;;;;42.60;29.45;;;;;;;1.64;75.09;100775.23;1742730;81;20994;-53
2021/01/10 06:55:38;;;;;;;53.30;32.75;;;;;;;1.61;75.12;100766.70;1730905;81;21143;-53
2021/01/10 06:58:08;;;;;;;54.83;33.70;;;;;;;1.55;74.95;100773.77;1742205;81;20994;-53
2021/01/10 07:00:55;;;;;;;49.45;29.90;;;;;;;1.49;75.02;100763.23;1738280;81;21220;-52
2021/01/10 07:03:27;;;;;;;42.08;27.35;;;;;;;1.47;75.17;100775.30;1744402;82;21683;-53
2021/01/10 07:06:08;;;;;;;50.35;29.35;;;;;;;1.51;75.22;100775.21;1714107;83;21029;-53
2021/01/10 07:08:55;;;;;;;46.08;28.10;;;;;;;1.51;75.24;100782.80;1703498;84;21086;-53
2021/01/10 07:11:28;;;;;;;53.42;31.12;;;;;;;1.55;75.37;100790.02;1741954;81;21776;-52
2021/01/10 07:14:07;;;;;;;52.80;30.37;;;;;;;1.60;75.07;100784.83;1692915;84;22158;-53
2021/01/10 07:16:35;;;;;;;57.80;32.55;;;;;;;1.63;74.88;100784.41;1721888;82;22880;-52
2021/01/10 07:19:06;;;;;;;43.48;27.48;;;;;;;1.62;74.55;100782.73;1742452;81;21011;-52
2021/01/10 07:21:44;;;;;;;52.33;30.80;;;;;;;1.61;74.70;100789.19;1713742;82;21034;-52
2021/01/10 07:24:20;;;;;;;42.35;26.30;;;;;;;1.65;74.80;100791.80;1683900;84;21070;-53
2021/01/10 07:26:57;;;;;;;;;;;;;;;1.70;74.61;100800.16;1708942;84;21166;-53
2021/01/10 07:29:33;;;;;;;51.30;32.20;;;;;;;1.70;74.55;100801.51;1702948;84;20153;-53
2021/01/10 07:32:19;;;;;;;45.92;27.75;;;;;;;1.69;74.67;100802.53;1683466;85;21100;-53
2021/01/10 07:34:52;;;;;;;56.33;32.80;;;;;;;1.77;74.47;100806.09;1743855;81;21014;-52
2021/01/10 07:37:29;;;;;;;54.15;33.78;;;;;;;1.75;74.50;100807.66;1744489;82;21022;-53
2021/01/10 07:40:06;;;;;;;40.75;27.95;;;;;;;1.76;74.41;100805.77;1741824;81;21209;-53
2021/01/10 07:42:38;;;;;;;48.92;30.48;;;;;;;1.78;74.54;100814.01;1744587;81;21006;-53
2021/01/10 07:45:17;;;;;;;45.60;29.00;;;;;;;1.81;74.61;100811.41;1713804;83;21011;-52
2021/01/10 07:47:48;;;;;;;48.52;30.15;;;;;;;1.90;74.48;100806.09;1706363;84;21098;-53
2021/01/10 07:50:21;;;;;;;44.50;29.42;;;;;;;1.92;74.26;100806.75;1744426;82;21486;-52
2021/01/10 07:52:57;;;;;;;51.37;33.48;;;;;;;1.95;74.31;100815.81;1716186;82;22143;-52
2021/01/10 07:55:51;;;;;;;45.75;30.43;;;;;;;2.02;73.92;100805.81;1876118;76;22467;-53
2021/01/10 07:58:19;;;;;;;44.00;27.30;;;;;;;1.96;73.75;100808.00;1785917;78;21107;-53
2021/01/10 08:00:50;;;;;;;45.73;28.70;;;;;;;1.97;73.68;100803.41;1824228;78;21303;-54
2021/01/10 08:03:25;;;;;;;45.90;28.52;;;;;;;2.02;73.51;100817.17;1788419;79;20982;-54
2021/01/10 08:06:06;;;;;;;48.30;27.65;;;;;;;2.02;73.23;100822.59;1770170;81;21587;-53
2021/01/10 08:08:47;;;;;;;45.85;29.20;;;;;;;2.00;73.27;100817.89;1769444;81;21036;-53
2021/01/10 08:11:32;;;;;;;48.33;31.05;;;;;;;2.05;73.31;100824.36;1760850;80;21053;-53
2021/01/10 08:13:59;;;;;;;48.02;30.52;;;;;;;2.10;73.13;100825.62;1766090;81;21022;-53
2021/01/10 08:16:32;;;;;;;41.98;26.20;;;;;;;2.13;73.04;100829.27;1770241;81;21056;-54
2021/01/10 08:19:03;;;;;;;41.53;25.35;;;;;;;2.14;73.04;100822.27;1766137;81;21025;-53
2021/01/10 08:21:31;;;;;;;50.88;32.75;;;;;;;2.18;72.93;100826.77;1765270;81;21191;-53
2021/01/10 08:24:00;;;;;;;47.98;29.95;;;;;;;2.14;72.46;100833.64;1767361;81;20986;-54
2021/01/10 08:26:28;;;;;;;42.50;28.73;;;;;;;2.10;72.88;100829.68;1750849;81;21251;-54
2021/01/10 08:29:01;;;;;;;40.58;25.30;;;;;;;2.15;72.48;100823.13;1749126;81;21362;-54
2021/01/10 08:31:28;;;;;;;46.77;30.25;;;;;;;2.10;72.49;100823.76;1770010;81;21611;-53
2021/01/10 08:34:01;;;;;;;47.83;28.62;;;;;;;2.14;72.76;100830.94;1768388;81;21316;-54
2021/01/10 08:36:29;;;;;;;46.92;29.23;;;;;;;2.19;72.74;100832.52;1770251;81;20954;-54
2021/01/10 08:39:02;;;;;;;45.65;28.20;;;;;;;2.21;72.66;100829.06;1768995;81;23548;-54
2021/01/10 08:41:37;;;;;;;42.45;26.65;;;;;;;2.25;72.29;100839.80;1766456;81;21013;-54
2021/01/10 08:44:19;;;;;;;55.75;42.70;;;;;;;2.27;72.22;100835.53;1751204;81;20988;-54
2021/01/10 08:46:49;;;;;;;44.45;28.47;;;;;;;2.28;72.43;100838.03;1782058;80;21017;-54
2021/01/10 08:49:29;;;;;;;41.90;26.57;;;;;;;2.30;72.25;100837.31;1770379;79;21013;-58
2021/01/10 08:51:55;;;;;;;45.25;27.93;;;;;;;2.33;72.08;100835.53;1790564;79;21393;-54
2021/01/10 08:54:24;;;;;;;50.00;29.50;;;;;;;2.34;72.05;100831.77;1780880;80;21049;-54
2021/01/10 08:56:53;;;;;;;49.55;29.40;;;;;;;2.32;72.13;100828.97;1783183;80;21547;-54
2021/01/10 08:59:21;;;;;;;51.50;30.40;;;;;;;2.32;72.06;100833.86;1778298;80;21077;-53
2021/01/10 09:01:50;;;;;;;44.27;28.98;;;;;;;2.36;72.03;100832.41;1776030;80;20957;-53
2021/01/10 09:04:18;;;;;;;47.58;29.10;;;;;;;2.43;71.93;100832.41;1781325;80;21139;-53
2021/01/10 09:06:54;;;;;;;46.73;28.40;;;;;;;2.48;71.77;100822.28;1773075;80;21076;-53
2021/01/10 09:09:50;;;;;;;42.38;25.75;;;;;;;2.51;71.59;100821.33;1780757;80;21493;-53
2021/01/10 09:12:32;;;;;;;47.80;31.02;;;;;;;2.50;71.59;100827.81;1782600;80;20958;-54
2021/01/10 09:15:10;;;;;;;47.05;30.57;;;;;;;2.53;71.52;100829.25;1767281;80;21018;-54
2021/01/10 09:18:03;;;;;;;43.25;29.07;;;;;;;2.59;71.33;100824.36;1785753;80;21283;-54
2021/01/10 09:20:43;;;;;;;45.03;28.50;;;;;;;2.64;71.38;100823.19;1772929;80;21073;-53
2021/01/10 09:23:10;;;;;;;40.23;26.40;;;;;;;2.70;71.01;100814.23;1786422;80;21022;-53
2021/01/10 09:25:40;;;;;;;41.30;25.23;;;;;;;2.67;70.93;100818.72;1782669;80;20989;-52
2021/01/10 09:28:13;;;;;;;39.00;26.33;;;;;;;2.62;71.02;100818.51;1782661;80;21038;-54
2021/01/10 09:30:54;;;;;;;41.13;26.80;;;;;;;2.59;71.08;100820.30;1779088;80;22275;-53
2021/01/10 09:33:25;;;;;;;41.98;27.13;;;;;;;2.62;70.97;100813.62;1783663;80;21056;-54
2021/01/10 09:35:56;;;;;;;44.13;26.27;;;;;;;2.65;70.57;100811.84;1778878;80;21045;-54
2021/01/10 09:38:28;;;;;;;39.25;25.52;;;;;;;2.70;70.53;100813.37;1781477;80;21188;-53
2021/01/10 09:41:12;;;;;;;42.98;28.30;;;;;;;2.76;70.44;100823.40;1778485;80;21005;-54
2021/01/10 09:43:51;;;;;;;48.78;26.50;;;;;;;2.80;69.70;100815.65;1779838;80;22209;-53
2021/01/10 09:46:36;;;;;;;48.30;31.42;;;;;;;2.75;69.85;100815.77;1776697;80;21041;-53
2021/01/10 09:49:07;;;;;;;39.85;24.65;;;;;;;2.74;69.40;100819.55;1772366;80;21156;-53
2021/01/10 09:51:41;;;;;;;38.73;24.82;;;;;;;2.74;69.19;100820.05;1776342;80;21029;-54
2021/01/10 09:54:16;;;;;;;34.50;21.65;;;;;;;2.66;69.35;100813.48;1777519;80;21001;-53
2021/01/10 09:56:57;;;;;;;34.43;23.30;;;;;;;2.64;69.01;100819.66;1772156;80;22595;-53
2021/01/10 09:59:39;;;;;;;35.68;23.22;;;;;;;2.63;68.91;100816.12;1781874;80;21611;-53
2021/01/10 10:02:23;;;;;;;35.85;23.40;;;;;;;2.65;68.83;100812.66;1776743;80;21046;-53
2021/01/10 10:04:54;;;;;;;35.68;20.92;;;;;;;2.68;69.14;100816.30;1777211;80;21012;-53
2021/01/10 10:07:34;;;;;;;40.80;25.25;;;;;;;2.72;68.41;100809.41;1778693;80;21029;-52
2021/01/10 10:10:27;;;;;;;34.58;22.60;;;;;;;2.73;68.41;100810.23;1786136;80;22301;-53
2021/01/10 10:13:04;;;;;;;33.88;21.95;;;;;;;2.81;68.42;100817.33;1782674;80;21029;-53
2021/01/10 10:15:45;;;;;;;35.88;21.90;;;;;;;2.85;68.07;100811.80;1781620;80;20939;-54
2021/01/10 10:18:17;;;;;;;37.05;23.55;;;;;;;2.83;67.86;100811.16;1777895;80;20998;-53
2021/01/10 10:20:46;;;;;;;33.65;21.52;;;;;;;2.83;67.37;100813.86;1782681;80;21037;-54
2021/01/10 10:23:14;;;;;;;36.98;22.15;;;;;;;2.81;67.18;100814.61;1778454;80;21203;-54
2021/01/10 10:25:42;;;;;;;34.70;22.85;;;;;;;2.80;67.24;100815.15;1780789;80;21037;-53
2021/01/10 10:28:10;;;;;;;36.58;24.02;;;;;;;2.83;67.51;100812.51;1789337;80;21041;-53
2021/01/10 10:30:38;;;;;;;29.65;18.80;;;;;;;2.89;67.23;100811.14;1778283;80;21001;-54
2021/01/10 10:33:07;;;;;;;35.43;22.55;;;;;;;2.98;66.99;100811.73;1783965;80;20989;-53
2021/01/10 10:35:34;;;;;;;38.78;24.20;;;;;;;3.03;66.76;100812.45;1779220;80;22255;-53
2021/01/10 10:38:01;;;;;;;31.17;21.75;;;;;;;3.06;66.73;100809.33;1780580;80;21140;-54
2021/01/10 10:40:29;;;;;;;44.15;21.02;;;;;;;3.08;66.84;100814.01;1784040;80;20992;-53
2021/01/10 10:42:57;;;;;;;37.17;24.75;;;;;;;3.11;66.64;100814.94;1780523;79;21611;-53
2021/01/10 10:45:25;;;;;;;32.50;20.50;;;;;;;3.09;66.32;100812.44;1780971;80;21040;-54
2021/01/10 10:47:53;;;;;;;32.45;20.68;;;;;;;3.07;66.45;100806.41;1784115;80;21216;-53
2021/01/10 10:50:20;;;;;;;39.80;25.52;;;;;;;3.01;66.63;100811.31;1778259;80;21074;-53
2021/01/10 10:52:49;;;;;;;38.35;25.10;;;;;;;2.96;66.76;100805.70;1782654;80;21056;-53
2021/01/10 10:55:18;;;;;;;38.38;24.12;;;;;;;2.97;67.00;100805.17;1782640;80;20986;-54
2021/01/10 10:57:47;;;;;;;37.28;24.43;;;;;;;2.98;66.82;100804.14;1781756;80;21081;-54
2021/01/10 11:00:18;;;;;;;50.43;31.40;;;;;;;2.97;67.04;100813.31;1778390;80;21088;-53
2021/01/10 11:02:47;;;;;;;59.83;33.05;;;;;;;2.97;67.21;100808.70;1785432;80;20994;-54
2021/01/10 11:05:16;;;;;;;50.88;30.10;;;;;;;2.98;66.79;100800.89;1778028;80;21037;-54
2021/01/10 11:07:44;;;;;;;39.15;23.95;;;;;;;2.93;66.79;100808.31;1786270;80;21029;-54
2021/01/10 11:10:13;;;;;;;35.23;21.45;;;;;;;2.92;66.77;100807.17;1785287;80;21026;-53
2021/01/10 11:12:40;;;;;;;39.90;24.67;;;;;;;2.92;66.60;100803.11;1779608;80;21248;-53
2021/01/10 11:15:09;;;;;;;31.40;21.05;;;;;;;2.95;66.68;100806.75;1782247;79;22536;-52
2021/01/10 11:17:37;;;;;;;30.85;20.50;;;;;;;2.92;66.25;100802.57;1767169;80;21107;-52
2021/01/10 11:20:07;;;;;;;35.25;21.73;;;;;;;2.92;66.13;100805.82;1779238;80;21540;-52
2021/01/10 11:22:35;;;;;;;31.17;20.37;;;;;;;2.93;66.43;100808.31;1786702;80;21030;-53
2021/01/10 11:25:05;;;;;;;37.30;22.27;;;;;;;2.95;66.44;100805.39;1771750;80;21389;-54
2021/01/10 11:27:33;;;;;;;34.45;21.50;;;;;;;2.95;66.49;100813.53;1781554;80;20974;-55
2021/01/10 11:30:03;;;;;;;34.80;21.82;;;;;;;2.99;66.43;100811.23;1782695;80;21628;-53
2021/01/10 11:32:32;;;;;;;35.40;21.48;;;;;;;3.01;66.25;100815.38;1782402;80;21045;-52
2021/01/10 11:35:00;;;;;;;39.40;23.15;;;;;;;3.03;66.33;100809.73;1782504;80;20942;-52
2021/01/10 11:37:27;;;;;;;39.58;23.57;;;;;;;3.05;66.57;100812.55;1780593;80;21344;-53